Time;durP1;ratioP1;P1;durP2;ratioP2;P2;SDS_P1;SDS_P2;PMS_P1;PMS_P2;Temp;Humidity;BMP_temperature;BMP_pressure;BME280_temperature;BME280_humidity;BME280_pressure;Samples;Min_cycle;Max_cycle;Signal;HPM_P1;HPM_P2
2021/08/12 00:02:04;;;;;;;9.27;6.30;;;17.60;84.00;;;;;;5109553;28;20377;-76
2021/08/12 00:04:31;;;;;;;8.10;5.90;;;17.60;84.10;;;;;;5109669;28;20514;-78
2021/08/12 00:06:57;;;;;;;9.32;5.95;;;17.60;84.20;;;;;;5109515;28;20839;-77
2021/08/12 00:09:23;;;;;;;8.75;6.20;;;17.60;84.00;;;;;;5109527;28;20478;-77
2021/08/12 00:11:49;;;;;;;8.93;5.87;;;17.60;84.10;;;;;;5110748;28;20529;-78
2021/08/12 00:14:14;;;;;;;8.65;5.85;;;17.50;84.00;;;;;;5113463;28;20424;-76
2021/08/12 00:16:40;;;;;;;10.77;5.77;;;17.50;84.20;;;;;;5114391;28;20380;-77
2021/08/12 00:19:11;;;;;;;10.80;6.83;;;17.50;83.90;;;;;;5114445;28;20423;-77
2021/08/12 00:21:38;;;;;;;10.60;6.47;;;17.50;83.90;;;;;;5114612;28;20399;-79
2021/08/12 00:24:04;;;;;;;8.70;6.00;;;17.50;84.20;;;;;;5113205;28;20384;-77
2021/08/12 00:26:30;;;;;;;11.07;6.20;;;17.40;84.40;;;;;;5114116;28;20369;-77
2021/08/12 00:28:55;;;;;;;8.07;5.55;;;17.40;84.60;;;;;;5114944;28;20372;-77
2021/08/12 00:31:21;;;;;;;9.60;6.10;;;17.40;84.70;;;;;;5113131;28;20395;-77
2021/08/12 00:33:46;;;;;;;9.00;5.83;;;17.40;84.70;;;;;;5114179;28;20376;-76
2021/08/12 00:36:12;;;;;;;10.55;5.60;;;17.40;84.60;;;;;;5112916;28;20422;-78
2021/08/12 00:38:37;;;;;;;9.67;6.30;;;17.40;84.80;;;;;;5114057;28;20419;-77
2021/08/12 00:41:03;;;;;;;9.30;6.30;;;17.30;84.70;;;;;;5112901;28;20721;-78
2021/08/12 00:43:29;;;;;;;8.93;5.93;;;17.30;85.10;;;;;;5114342;28;20408;-77
2021/08/12 00:45:54;;;;;;;9.20;6.15;;;17.30;85.00;;;;;;5114091;28;20376;-77
2021/08/12 00:48:20;;;;;;;10.55;5.80;;;17.30;84.90;;;;;;5112752;28;20376;-76
2021/08/12 00:50:46;;;;;;;9.20;5.93;;;17.30;84.80;;;;;;5114090;28;20403;-77
2021/08/12 00:53:12;;;;;;;7.78;5.68;;;17.30;84.60;;;;;;5114040;28;20372;-77
2021/08/12 00:55:43;;;;;;;8.53;5.93;;;17.30;84.80;;;;;;5113771;28;20376;-77
2021/08/12 00:58:10;;;;;;;10.60;6.40;;;17.20;85.00;;;;;;5112701;28;20384;-76
2021/08/12 01:00:36;;;;;;;10.67;6.10;;;17.20;84.60;;;;;;5113860;28;20459;-77
2021/08/12 01:03:08;;;;;;;11.23;6.00;;;17.20;84.50;;;;;;5113838;28;20460;-77
2021/08/12 01:05:34;;;;;;;9.13;5.90;;;17.10;84.70;;;;;;5113983;28;20379;-76
2021/08/12 01:08:16;;;;;;;11.27;5.90;;;17.10;84.80;;;;;;5112350;28;20384;-78
2021/08/12 01:11:14;;;;;;;9.05;6.25;;;17.10;84.90;;;;;;5113705;28;20848;-79
2021/08/12 01:14:01;;;;;;;7.65;5.82;;;17.00;84.80;;;;;;5112316;28;20383;-76
2021/08/12 01:16:30;;;;;;;10.98;5.30;;;17.00;84.90;;;;;;5113587;28;20464;-77
2021/08/12 01:19:02;;;;;;;9.10;5.88;;;17.00;84.70;;;;;;5113562;28;20390;-79
2021/08/12 01:21:57;;;;;;;9.57;5.90;;;17.00;84.70;;;;;;5112139;28;20872;-77
2021/08/12 01:24:27;;;;;;;10.38;5.85;;;16.90;85.00;;;;;;5112355;28;20464;-76
2021/08/12 01:26:57;;;;;;;10.03;6.00;;;16.90;84.90;;;;;;5112009;28;20732;-76
2021/08/12 01:29:51;;;;;;;8.15;6.25;;;16.90;85.10;;;;;;5112005;28;20841;-77
2021/08/12 01:32:23;;;;;;;8.48;5.65;;;16.80;85.40;;;;;;5113581;28;20445;-77
2021/08/12 01:35:00;;;;;;;8.98;5.63;;;16.80;85.10;;;;;;5112028;28;20441;-76
2021/08/12 01:37:32;;;;;;;9.20;5.80;;;16.90;84.90;;;;;;5111845;28;20438;-76
2021/08/12 01:40:01;;;;;;;8.27;6.00;;;16.80;85.10;;;;;;5111850;28;20391;-77
2021/08/12 01:42:28;;;;;;;10.93;6.75;;;16.80;85.40;;;;;;5113148;28;20372;-76
2021/08/12 01:44:56;;;;;;;7.82;6.03;;;16.80;85.40;;;;;;5113115;28;20372;-76
2021/08/12 01:47:25;;;;;;;9.73;5.97;;;16.80;85.50;;;;;;5112925;28;20441;-78
2021/08/12 01:49:52;;;;;;;8.80;5.37;;;16.70;85.70;;;;;;5112949;28;20376;-76
2021/08/12 01:52:19;;;;;;;9.00;6.30;;;16.70;85.40;;;;;;5112691;28;20408;-77
2021/08/12 01:54:46;;;;;;;9.03;6.00;;;16.70;85.60;;;;;;5111467;28;20455;-75
2021/08/12 01:57:12;;;;;;;9.50;5.73;;;16.70;85.30;;;;;;5111528;28;20415;-76
2021/08/12 01:59:38;;;;;;;9.27;5.80;;;16.70;85.50;;;;;;5111510;28;20407;-76
2021/08/12 02:02:06;;;;;;;7.87;5.90;;;16.70;85.30;;;;;;5111404;28;20420;-76
2021/08/12 02:04:33;;;;;;;10.43;6.25;;;16.60;85.60;;;;;;5113063;28;20403;-76
2021/08/12 02:07:00;;;;;;;11.23;6.50;;;16.60;85.50;;;;;;5112717;28;20376;-77
2021/08/12 02:09:25;;;;;;;9.52;6.15;;;16.60;85.50;;;;;;5112708;28;20365;-76
2021/08/12 02:11:51;;;;;;;8.00;6.40;;;16.60;85.60;;;;;;5111117;28;20400;-78
2021/08/12 02:14:16;;;;;;;9.50;6.40;;;16.60;85.60;;;;;;5112671;28;20708;-75
2021/08/12 02:16:42;;;;;;;9.07;6.18;;;16.50;85.90;;;;;;5112477;28;20372;-75
2021/08/12 02:19:07;;;;;;;9.80;6.60;;;16.40;85.90;;;;;;5111255;28;20467;-76
2021/08/12 02:21:49;;;;;;;12.13;7.10;;;16.50;85.80;;;;;;5111013;28;20863;-78
2021/08/12 02:24:22;;;;;;;10.90;6.40;;;16.40;85.80;;;;;;5111034;28;20440;-76
2021/08/12 02:26:56;;;;;;;10.30;6.50;;;16.50;85.80;;;;;;5111043;28;20384;-77
2021/08/12 02:29:22;;;;;;;8.38;6.60;;;16.40;85.80;;;;;;5111038;28;20372;-78
2021/08/12 02:31:48;;;;;;;11.23;6.65;;;16.40;86.00;;;;;;5110800;28;20778;-78
2021/08/12 02:34:16;;;;;;;9.40;6.70;;;16.30;85.90;;;;;;5110486;28;20465;-77
2021/08/12 02:36:43;;;;;;;11.23;7.07;;;16.30;86.00;;;;;;5111962;28;20376;-79
2021/08/12 02:39:11;;;;;;;11.80;6.70;;;16.30;85.90;;;;;;5110708;28;20387;-76
2021/08/12 02:41:36;;;;;;;10.23;6.72;;;16.40;86.00;;;;;;5112203;28;20712;-76
2021/08/12 02:44:03;;;;;;;11.13;6.18;;;16.30;85.80;;;;;;5112222;28;20373;-76
2021/08/12 02:46:30;;;;;;;11.38;6.18;;;16.30;85.70;;;;;;5110429;28;20872;-76
2021/08/12 02:48:57;;;;;;;10.13;6.28;;;16.30;85.80;;;;;;5110274;28;20380;-78
2021/08/12 02:51:25;;;;;;;10.40;6.25;;;16.30;85.70;;;;;;5110470;28;20449;-76
2021/08/12 02:53:51;;;;;;;11.25;6.25;;;16.30;85.90;;;;;;5110679;28;20412;-76
2021/08/12 02:56:17;;;;;;;9.88;6.35;;;16.20;86.10;;;;;;5110824;28;20895;-76
2021/08/12 02:58:45;;;;;;;7.72;6.15;;;16.20;85.90;;;;;;5111567;28;20426;-75
2021/08/12 03:01:13;;;;;;;9.43;6.47;;;16.20;85.80;;;;;;5110339;28;20798;-75
2021/08/12 03:03:41;;;;;;;8.37;6.27;;;16.20;86.10;;;;;;5111434;28;20395;-77
2021/08/12 03:06:12;;;;;;;9.38;5.95;;;16.20;86.10;;;;;;5110243;28;20471;-76
2021/08/12 03:08:39;;;;;;;9.03;5.90;;;16.20;86.10;;;;;;5110200;28;20931;-75
2021/08/12 03:11:07;;;;;;;12.27;6.75;;;16.20;85.90;;;;;;5110110;28;20439;-77
2021/08/12 03:13:35;;;;;;;10.05;6.55;;;16.10;86.10;;;;;;5110096;28;20466;-77
2021/08/12 03:16:01;;;;;;;8.35;5.93;;;16.10;86.30;;;;;;5110146;28;20475;-76
2021/08/12 03:18:27;;;;;;;13.10;6.45;;;16.10;86.00;;;;;;5110100;28;20419;-76
2021/08/12 03:20:52;;;;;;;10.13;6.63;;;16.10;86.30;;;;;;5110080;28;20377;-77
2021/08/12 03:23:20;;;;;;;10.17;6.43;;;16.00;86.20;;;;;;5109990;28;20388;-77
2021/08/12 03:25:45;;;;;;;8.77;6.10;;;16.00;86.30;;;;;;5111306;28;20423;-75
2021/08/12 03:28:11;;;;;;;10.00;6.20;;;16.00;86.20;;;;;;5109854;28;20789;-76
2021/08/12 03:30:37;;;;;;;12.00;6.17;;;16.00;86.20;;;;;;5109902;28;20431;-76
2021/08/12 03:33:02;;;;;;;8.20;5.85;;;16.10;86.10;;;;;;5110914;28;20463;-77
2021/08/12 03:35:28;;;;;;;8.98;6.65;;;16.00;86.10;;;;;;5109899;28;20856;-76
2021/08/12 03:37:54;;;;;;;9.20;6.03;;;16.10;86.30;;;;;;5110963;28;20673;-76
2021/08/12 03:40:19;;;;;;;11.73;6.93;;;16.00;86.30;;;;;;5109846;28;20384;-75
2021/08/12 03:42:46;;;;;;;12.13;7.70;;;16.00;86.70;;;;;;5111136;28;20364;-76
2021/08/12 03:45:11;;;;;;;11.82;7.63;;;16.00;86.40;;;;;;5109782;28;20480;-76
2021/08/12 03:47:37;;;;;;;10.67;6.97;;;15.90;86.50;;;;;;5112663;28;20453;-76
2021/08/12 03:50:03;;;;;;;10.13;7.20;;;15.90;86.50;;;;;;5115018;28;20372;-76
2021/08/12 03:52:28;;;;;;;9.57;6.63;;;15.90;86.70;;;;;;5115193;28;20368;-76
2021/08/12 03:54:54;;;;;;;10.80;6.78;;;15.90;86.30;;;;;;5113883;28;20879;-75
2021/08/12 03:57:19;;;;;;;9.13;6.80;;;15.90;86.10;;;;;;5113835;28;20383;-76
2021/08/12 03:59:45;;;;;;;11.05;7.03;;;16.00;86.30;;;;;;5113676;28;20453;-75
2021/08/12 04:02:10;;;;;;;8.73;6.30;;;15.90;86.60;;;;;;5115092;28;20392;-77
2021/08/12 04:04:36;;;;;;;8.27;6.70;;;15.90;86.60;;;;;;5113660;28;20379;-76
2021/08/12 04:07:02;;;;;;;10.17;7.77;;;15.90;86.40;;;;;;5114792;28;20467;-76
2021/08/12 04:09:27;;;;;;;13.33;7.90;;;15.90;86.80;;;;;;5114842;28;20376;-76
2021/08/12 04:11:53;;;;;;;10.32;6.80;;;15.80;87.00;;;;;;5113390;28;20483;-76
2021/08/12 04:14:18;;;;;;;9.93;6.80;;;15.90;86.90;;;;;;5113487;28;20690;-75
2021/08/12 04:16:44;;;;;;;10.90;7.13;;;15.80;86.80;;;;;;5114912;28;20852;-76
2021/08/12 04:19:12;;;;;;;9.93;6.50;;;15.90;86.80;;;;;;5114689;28;20716;-77
2021/08/12 04:21:38;;;;;;;11.98;7.07;;;15.90;86.60;;;;;;5113286;28;20419;-76
2021/08/12 04:24:04;;;;;;;12.48;7.60;;;15.90;86.60;;;;;;5113238;28;20408;-77
2021/08/12 04:26:29;;;;;;;9.80;7.27;;;15.80;86.70;;;;;;5114857;28;20376;-79
2021/08/12 04:28:56;;;;;;;9.70;6.37;;;15.80;86.90;;;;;;5113165;28;20376;-75
2021/08/12 04:31:22;;;;;;;11.82;7.07;;;15.80;86.80;;;;;;5113048;28;20709;-77
2021/08/12 04:33:48;;;;;;;10.32;6.88;;;15.80;86.60;;;;;;5114385;28;20372;-77
2021/08/12 04:36:14;;;;;;;11.43;7.32;;;15.80;86.80;;;;;;5114457;28;20417;-77
2021/08/12 04:38:40;;;;;;;10.23;7.25;;;15.80;86.90;;;;;;5114047;28;20471;-77
2021/08/12 04:41:05;;;;;;;10.25;7.40;;;15.80;86.80;;;;;;5114377;28;20376;-78
2021/08/12 04:43:31;;;;;;;9.47;7.63;;;15.80;86.90;;;;;;5114388;28;20453;-76
2021/08/12 04:45:57;;;;;;;11.90;7.20;;;15.80;87.10;;;;;;5114203;28;20693;-76
2021/08/12 04:48:22;;;;;;;11.68;7.60;;;15.80;87.00;;;;;;5112831;28;20369;-76
2021/08/12 04:50:48;;;;;;;10.50;7.88;;;15.80;86.80;;;;;;5112826;28;20407;-76
2021/08/12 04:53:14;;;;;;;13.88;8.02;;;15.80;86.90;;;;;;5114052;28;20368;-78
2021/08/12 04:55:40;;;;;;;12.13;8.00;;;15.80;86.80;;;;;;5112750;28;20384;-76
2021/08/12 04:58:06;;;;;;;12.60;8.02;;;15.80;87.10;;;;;;5113180;28;20437;-76
2021/08/12 05:00:32;;;;;;;13.15;8.73;;;15.80;87.10;;;;;;5114141;28;20875;-75
2021/08/12 05:02:57;;;;;;;11.30;8.20;;;15.90;87.40;;;;;;5114368;28;20360;-76
2021/08/12 05:05:23;;;;;;;13.05;8.02;;;15.80;87.60;;;;;;5112756;28;20416;-76
2021/08/12 05:07:49;;;;;;;12.20;8.37;;;15.80;87.30;;;;;;5112594;28;20430;-77
2021/08/12 05:10:15;;;;;;;10.65;8.10;;;15.90;87.30;;;;;;5112446;28;20387;-75
2021/08/12 05:12:41;;;;;;;12.35;8.25;;;15.90;87.30;;;;;;5113933;28;20849;-76
2021/08/12 05:15:07;;;;;;;11.83;8.63;;;15.90;87.10;;;;;;5112353;28;20460;-77
2021/08/12 05:17:32;;;;;;;12.45;8.88;;;15.90;87.20;;;;;;5113945;28;20442;-79
2021/08/12 05:19:58;;;;;;;16.37;10.07;;;16.00;87.20;;;;;;5112526;28;20411;-76
2021/08/12 05:22:24;;;;;;;11.85;8.48;;;16.00;87.60;;;;;;5112504;28;20384;-75
2021/08/12 05:24:49;;;;;;;12.57;9.40;;;16.00;87.60;;;;;;5112095;28;20372;-76
2021/08/12 05:27:16;;;;;;;12.97;8.47;;;16.00;87.70;;;;;;5113204;28;20396;-76
2021/08/12 05:29:42;;;;;;;14.60;9.13;;;16.10;87.50;;;;;;5113365;28;20402;-75
2021/08/12 05:32:08;;;;;;;15.32;10.23;;;16.00;87.80;;;;;;5111988;28;20396;-76
2021/08/12 05:34:33;;;;;;;15.13;9.50;;;16.00;87.40;;;;;;5111891;28;20384;-76
2021/08/12 05:36:59;;;;;;;16.20;10.43;;;16.10;87.60;;;;;;5112015;28;20697;-78
2021/08/12 05:39:25;;;;;;;11.93;9.13;;;16.10;88.50;;;;;;5111794;28;20377;-77
2021/08/12 05:41:51;;;;;;;13.23;8.33;;;16.10;88.10;;;;;;5113126;28;20369;-76
2021/08/12 05:44:16;;;;;;;11.80;8.90;;;16.10;87.90;;;;;;5113016;28;20376;-75
2021/08/12 05:46:44;;;;;;;15.00;9.48;;;16.10;87.50;;;;;;5111490;28;20428;-76
2021/08/12 05:49:10;;;;;;;13.23;9.10;;;16.10;88.00;;;;;;5112892;28;20809;-76
2021/08/12 05:51:37;;;;;;;14.20;9.15;;;16.20;87.80;;;;;;5111643;28;20399;-77
2021/08/12 05:54:03;;;;;;;12.48;8.95;;;16.20;87.90;;;;;;5112736;28;20380;-76
2021/08/12 05:56:28;;;;;;;14.68;9.40;;;16.20;87.80;;;;;;5112941;28;20428;-76
2021/08/12 05:58:54;;;;;;;12.70;10.00;;;16.30;87.80;;;;;;5111304;28;20373;-76
2021/08/12 06:01:19;;;;;;;12.17;9.40;;;16.30;88.00;;;;;;5111437;28;20388;-76
2021/08/12 06:03:47;;;;;;;15.45;9.98;;;16.30;88.60;;;;;;5112635;28;20367;-76
2021/08/12 06:06:14;;;;;;;16.75;10.70;;;16.30;89.20;;;;;;5111329;28;20377;-76
2021/08/12 06:08:40;;;;;;;13.30;8.93;;;16.40;88.50;;;;;;5112088;28;20773;-76
2021/08/12 06:11:06;;;;;;;13.70;9.37;;;16.50;88.50;;;;;;5112217;28;20428;-78
2021/08/12 06:13:32;;;;;;;13.23;9.70;;;16.60;89.00;;;;;;5112202;28;20918;-75
2021/08/12 06:15:59;;;;;;;14.17;9.20;;;16.60;89.20;;;;;;5111115;28;20373;-79
2021/08/12 06:18:24;;;;;;;13.18;9.43;;;16.80;89.10;;;;;;5112394;28;20682;-78
2021/08/12 06:20:50;;;;;;;13.02;9.18;;;16.80;88.70;;;;;;5112294;28;20384;-76
2021/08/12 06:23:16;;;;;;;14.70;8.98;;;16.90;89.20;;;;;;5111000;28;20547;-75
2021/08/12 06:25:41;;;;;;;12.53;9.07;;;16.90;89.20;;;;;;5112142;28;20509;-78
2021/08/12 06:28:08;;;;;;;12.63;8.63;;;16.90;89.40;;;;;;5110857;28;20388;-76
2021/08/12 06:30:34;;;;;;;14.82;9.35;;;16.90;89.10;;;;;;5112214;28;20403;-78
2021/08/12 06:33:00;;;;;;;13.68;9.05;;;16.90;89.40;;;;;;5112064;28;20829;-76
2021/08/12 06:35:27;;;;;;;11.43;8.70;;;17.10;88.90;;;;;;5110567;28;20449;-76
2021/08/12 06:37:53;;;;;;;12.73;8.63;;;17.10;88.10;;;;;;5111987;28;20382;-75
2021/08/12 06:40:23;;;;;;;12.32;8.55;;;17.20;88.30;;;;;;5111745;28;20407;-76
2021/08/12 06:42:49;;;;;;;11.45;7.90;;;17.30;87.70;;;;;;5110614;28;20432;-77
2021/08/12 06:45:16;;;;;;;11.35;8.30;;;17.40;88.10;;;;;;5110562;28;20426;-75
2021/08/12 06:47:42;;;;;;;14.55;8.40;;;17.40;88.30;;;;;;5110416;28;20775;-79
2021/08/12 06:50:08;;;;;;;16.25;8.90;;;17.40;87.90;;;;;;5111693;28;20380;-76
2021/08/12 06:52:35;;;;;;;11.10;8.25;;;17.40;88.40;;;;;;5110519;28;20699;-79
2021/08/12 06:55:01;;;;;;;12.82;7.82;;;17.60;87.20;;;;;;5111957;28;20368;-78
2021/08/12 06:57:27;;;;;;;13.00;8.27;;;17.70;86.70;;;;;;5112162;28;20367;-76
2021/08/12 06:59:53;;;;;;;13.98;8.00;;;17.70;86.90;;;;;;5110391;28;20694;-76
2021/08/12 07:02:19;;;;;;;11.10;8.02;;;17.80;86.90;;;;;;5110442;28;20755;-76
2021/08/12 07:04:45;;;;;;;11.00;7.82;;;17.80;87.60;;;;;;5110249;28;20384;-77
2021/08/12 07:07:10;;;;;;;11.30;7.67;;;17.90;87.90;;;;;;5111713;28;20833;-77
2021/08/12 07:09:37;;;;;;;15.48;7.80;;;17.90;87.30;;;;;;5110211;28;20387;-76
2021/08/12 07:12:03;;;;;;;9.70;7.60;;;17.90;87.20;;;;;;5111470;28;20400;-78
2021/08/12 07:14:28;;;;;;;11.93;8.13;;;18.00;87.00;;;;;;5109991;28;20377;-79
2021/08/12 07:16:54;;;;;;;10.63;7.17;;;18.10;86.70;;;;;;5111505;28;20372;-76
2021/08/12 07:19:20;;;;;;;10.27;7.55;;;18.10;87.10;;;;;;5110084;28;20372;-76
2021/08/12 07:21:45;;;;;;;13.10;8.20;;;18.10;87.00;;;;;;5109272;28;20388;-75
2021/08/12 07:24:11;;;;;;;11.10;7.90;;;18.10;87.20;;;;;;5111199;28;20828;-77
2021/08/12 07:26:37;;;;;;;15.30;7.82;;;18.20;87.10;;;;;;5109925;28;20836;-78
2021/08/12 07:29:03;;;;;;;10.77;7.87;;;18.20;87.00;;;;;;5109931;28;20419;-76
2021/08/12 07:31:29;;;;;;;14.48;7.78;;;18.30;86.30;;;;;;5109873;28;20454;-77
2021/08/12 07:33:54;;;;;;;10.30;7.73;;;18.40;85.70;;;;;;5110239;28;20384;-75
2021/08/12 07:36:20;;;;;;;14.40;7.80;;;18.30;85.80;;;;;;5109445;28;20475;-77
2021/08/12 07:38:45;;;;;;;11.30;6.95;;;18.40;85.70;;;;;;5111012;28;20375;-77
2021/08/12 07:41:12;;;;;;;11.60;7.03;;;18.60;84.90;;;;;;5111173;28;20456;-76
2021/08/12 07:43:38;;;;;;;13.95;7.38;;;18.70;84.50;;;;;;5111116;28;20414;-75
2021/08/12 07:46:04;;;;;;;10.32;6.80;;;18.80;83.80;;;;;;5109714;28;20762;-75
2021/08/12 07:48:30;;;;;;;12.45;6.75;;;18.80;84.20;;;;;;5109810;28;20951;-77
2021/08/12 07:50:55;;;;;;;12.63;7.33;;;18.80;85.70;;;;;;5109617;28;20488;-77
2021/08/12 07:53:21;;;;;;;11.60;7.35;;;18.80;84.80;;;;;;5111043;28;20859;-76
2021/08/12 07:55:47;;;;;;;11.32;7.45;;;18.80;84.40;;;;;;5109769;28;20388;-76
2021/08/12 07:58:12;;;;;;;10.30;7.20;;;19.00;83.70;;;;;;5109776;28;20852;-75
2021/08/12 08:00:38;;;;;;;10.48;7.10;;;19.00;83.40;;;;;;5110596;28;20723;-77
2021/08/12 08:03:04;;;;;;;11.63;6.32;;;19.10;83.80;;;;;;5109693;28;20384;-77
2021/08/12 08:05:30;;;;;;;9.83;5.70;;;19.30;83.50;;;;;;5109671;28;20387;-77
2021/08/12 08:07:56;;;;;;;9.93;6.05;;;19.30;83.80;;;;;;5110998;28;20376;-77
2021/08/12 08:10:24;;;;;;;10.23;6.17;;;19.50;81.30;;;;;;5110800;28;20709;-76
2021/08/12 08:12:50;;;;;;;13.03;6.90;;;19.60;81.50;;;;;;5109616;28;20940;-76
2021/08/12 08:15:18;;;;;;;12.13;6.47;;;19.60;79.60;;;;;;5110868;28;20418;-76
2021/08/12 08:17:43;;;;;;;10.77;6.18;;;19.70;79.20;;;;;;5109719;28;20401;-76
2021/08/12 08:20:10;;;;;;;12.10;6.30;;;19.70;80.30;;;;;;5110602;28;20453;-76
2021/08/12 08:22:37;;;;;;;10.15;6.20;;;19.70;80.50;;;;;;5109482;28;20377;-76
2021/08/12 08:25:07;;;;;;;12.00;6.35;;;19.70;81.70;;;;;;5109403;28;20408;-75
2021/08/12 08:27:32;;;;;;;11.25;6.05;;;19.90;80.70;;;;;;5109416;28;20463;-75
2021/08/12 08:29:58;;;;;;;10.33;6.20;;;20.10;78.80;;;;;;5109271;28;20460;-76
2021/08/12 08:32:25;;;;;;;10.73;5.95;;;20.10;78.90;;;;;;5111555;28;20396;-77
2021/08/12 08:34:52;;;;;;;10.60;6.05;;;20.20;78.90;;;;;;5114501;28;20373;-76
2021/08/12 08:37:18;;;;;;;12.30;6.40;;;20.30;79.30;;;;;;5114691;28;20437;-76
2021/08/12 08:39:44;;;;;;;10.07;6.25;;;20.10;79.10;;;;;;5113081;28;20865;-76
2021/08/12 08:42:12;;;;;;;10.93;6.00;;;20.10;78.00;;;;;;5112864;28;20437;-76
2021/08/12 08:44:40;;;;;;;9.07;5.72;;;20.00;79.40;;;;;;5114380;28;20451;-77
2021/08/12 08:47:08;;;;;;;10.27;6.18;;;20.00;79.90;;;;;;5114175;28;20476;-77
2021/08/12 08:49:37;;;;;;;13.82;6.72;;;20.10;79.20;;;;;;5112898;28;20383;-75
2021/08/12 08:52:03;;;;;;;12.85;6.50;;;20.10;80.90;;;;;;5114104;28;20392;-76
2021/08/12 08:54:31;;;;;;;10.77;6.03;;;20.30;77.90;;;;;;5114044;28;20436;-75
2021/08/12 08:56:57;;;;;;;10.38;6.15;;;20.50;79.10;;;;;;5112650;28;20794;-77
2021/08/12 08:59:24;;;;;;;12.00;6.55;;;20.60;77.50;;;;;;5113931;28;20368;-77
2021/08/12 09:01:49;;;;;;;8.38;5.35;;;20.60;76.00;;;;;;5113623;28;20369;-75
2021/08/12 09:04:15;;;;;;;9.07;6.07;;;20.60;76.50;;;;;;5112764;28;20380;-76
2021/08/12 09:06:41;;;;;;;12.32;6.15;;;20.90;75.40;;;;;;5113931;28;20368;-76
2021/08/12 09:09:06;;;;;;;10.23;5.83;;;21.00;74.70;;;;;;5112565;28;20412;-77
2021/08/12 09:11:32;;;;;;;9.68;5.60;;;20.90;75.30;;;;;;5112303;28;20405;-77
2021/08/12 09:13:57;;;;;;;9.57;5.17;;;21.10;76.00;;;;;;5114087;28;20377;-76
2021/08/12 09:16:29;;;;;;;10.52;6.93;;;21.20;76.70;;;;;;5112302;28;20479;-76
2021/08/12 09:19:24;;;;;;;11.85;6.03;;;21.30;75.80;;;;;;5113633;28;20377;-77
2021/08/12 09:21:57;;;;;;;10.60;5.47;;;21.30;75.90;;;;;;5113492;28;20384;-76
2021/08/12 09:24:23;;;;;;;13.15;6.50;;;21.60;76.30;;;;;;5112445;28;20475;-77
2021/08/12 09:26:49;;;;;;;9.43;6.72;;;21.70;74.20;;;;;;5112050;28;20380;-76
2021/08/12 09:29:30;;;;;;;12.27;6.38;;;21.40;74.20;;;;;;5113573;28;20717;-77
2021/08/12 09:31:56;;;;;;;11.30;6.97;;;21.70;74.30;;;;;;5112020;28;20400;-76
2021/08/12 09:34:22;;;;;;;9.80;5.93;;;21.90;73.30;;;;;;5112062;28;20404;-76
2021/08/12 09:37:01;;;;;;;11.35;6.93;;;21.80;74.00;;;;;;5111836;28;20689;-75
2021/08/12 09:39:28;;;;;;;9.93;6.43;;;21.80;74.80;;;;;;5112076;28;20383;-75
2021/08/12 09:41:54;;;;;;;13.20;6.17;;;21.80;73.30;;;;;;5113252;28;20389;-76
2021/08/12 09:44:50;;;;;;;14.27;6.03;;;21.90;76.00;;;;;;5110867;28;20372;-76
2021/08/12 09:47:36;;;;;;;13.38;6.43;;;22.10;74.70;;;;;;5113155;28;20461;-77
2021/08/12 09:50:02;;;;;;;10.68;6.50;;;22.30;74.50;;;;;;5111400;28;20395;-76
2021/08/12 09:52:34;;;;;;;12.13;6.97;;;22.30;73.60;;;;;;5112979;28;20431;-76
2021/08/12 09:55:18;;;;;;;10.05;6.25;;;22.30;72.60;;;;;;5113140;28;20384;-77
2021/08/12 09:57:46;;;;;;;11.93;6.35;;;22.30;73.30;;;;;;5111740;28;20384;-75
2021/08/12 10:00:23;;;;;;;10.07;6.20;;;22.30;75.80;;;;;;5113103;28;20378;-78
2021/08/12 10:02:50;;;;;;;10.52;6.10;;;22.70;76.20;;;;;;5111651;28;20899;-75
2021/08/12 10:05:15;;;;;;;13.50;6.90;;;22.70;75.10;;;;;;5112821;28;20376;-75
2021/08/12 10:07:46;;;;;;;12.07;6.80;;;22.80;74.20;;;;;;5112975;28;20521;-75
2021/08/12 10:10:16;;;;;;;10.38;6.57;;;22.80;72.00;;;;;;5113004;28;20376;-75
2021/08/12 10:12:46;;;;;;;12.23;6.60;;;22.60;71.40;;;;;;5112941;28;20461;-76
2021/08/12 10:15:16;;;;;;;11.35;6.32;;;22.80;72.80;;;;;;5111427;28;20391;-77
2021/08/12 10:17:43;;;;;;;14.15;6.55;;;23.10;75.50;;;;;;5111444;28;20884;-79
2021/08/12 10:20:23;;;;;;;11.95;7.85;;;23.30;72.20;;;;;;5112807;28;20454;-77
2021/08/12 10:22:50;;;;;;;9.93;6.78;;;23.20;70.40;;;;;;5111444;28;20384;-77
2021/08/12 10:25:17;;;;;;;11.43;6.38;;;23.30;68.20;;;;;;5112760;28;20764;-75
2021/08/12 10:27:44;;;;;;;9.85;5.30;;;23.30;70.40;;;;;;5112477;28;20784;-75
2021/08/12 10:30:10;;;;;;;15.30;7.00;;;23.50;70.00;;;;;;5111145;28;20415;-75
2021/08/12 10:32:40;;;;;;;10.80;6.45;;;23.60;72.10;;;;;;5110746;28;20480;-76
2021/08/12 10:35:06;;;;;;;11.75;6.82;;;23.70;72.10;;;;;;5110810;28;20380;-77
2021/08/12 10:37:32;;;;;;;13.30;6.57;;;23.50;71.30;;;;;;5110400;28;20408;-74
2021/08/12 10:39:58;;;;;;;11.30;6.30;;;23.60;70.20;;;;;;5110688;28;20419;-75
2021/08/12 10:42:24;;;;;;;9.05;5.13;;;23.50;72.40;;;;;;5110601;28;20376;-75
2021/08/12 10:44:51;;;;;;;8.95;4.90;;;23.60;62.20;;;;;;5111972;28;20396;-75
2021/08/12 10:47:43;;;;;;;8.93;4.70;;;23.50;63.10;;;;;;5110356;28;20394;-75
2021/08/12 10:50:24;;;;;;;11.50;5.28;;;23.50;64.50;;;;;;5110611;28;20446;-75
2021/08/12 10:53:09;;;;;;;10.93;6.30;;;23.70;67.70;;;;;;5111758;28;20394;-76
2021/08/12 10:55:58;;;;;;;12.57;5.00;;;23.90;60.30;;;;;;5111524;28;20376;-75
2021/08/12 10:58:33;;;;;;;9.77;5.60;;;23.70;65.10;;;;;;5111725;28;20368;-75
2021/08/12 11:01:07;;;;;;;12.13;5.20;;;23.90;62.60;;;;;;5110499;28;20384;-75
2021/08/12 11:03:35;;;;;;;9.90;5.20;;;23.90;64.90;;;;;;5110310;28;20380;-75
2021/08/12 11:06:03;;;;;;;12.95;6.25;;;23.90;61.40;;;;;;5110316;28;20377;-77
2021/08/12 11:08:51;;;;;;;11.00;5.88;;;23.90;62.20;;;;;;5111846;28;20384;-75
2021/08/12 11:11:26;;;;;;;9.90;5.45;;;24.00;66.50;;;;;;5111459;28;20396;-76
2021/08/12 11:13:59;;;;;;;10.90;4.70;;;24.20;63.40;;;;;;5111396;28;20401;-75
2021/08/12 11:16:51;;;;;;;12.15;5.35;;;24.10;62.30;;;;;;5111491;28;20725;-76
2021/08/12 11:19:23;;;;;;;11.50;5.22;;;23.90;62.30;;;;;;5100768;28;20802;-74
2021/08/12 11:21:50;;;;;;;9.02;4.53;;;23.90;59.30;;;;;;5109987;28;20380;-74
2021/08/12 11:24:25;;;;;;;9.88;4.75;;;23.90;56.40;;;;;;5110039;28;20771;-75
2021/08/12 11:26:53;;;;;;;9.55;4.63;;;23.80;58.90;;;;;;5109879;28;20433;-75
2021/08/12 11:29:32;;;;;;;7.63;4.38;;;23.80;59.40;;;;;;5109927;28;20384;-75
2021/08/12 11:32:02;;;;;;;7.80;4.10;;;23.90;57.80;;;;;;5111122;28;20396;-76
2021/08/12 11:34:52;;;;;;;8.23;4.33;;;24.00;58.30;;;;;;5111418;28;20418;-75
2021/08/12 11:37:28;;;;;;;7.93;4.90;;;24.00;64.00;;;;;;5111110;28;20399;-77
2021/08/12 11:40:01;;;;;;;11.25;5.53;;;24.00;61.10;;;;;;5109885;28;20943;-75
2021/08/12 11:42:40;;;;;;;7.88;4.43;;;24.20;56.80;;;;;;5109710;28;20396;-77
2021/08/12 11:45:11;;;;;;;9.83;4.87;;;24.20;62.20;;;;;;5110880;28;20852;-76
2021/08/12 11:47:38;;;;;;;9.63;4.70;;;23.90;59.80;;;;;;5109625;28;21051;-76
2021/08/12 11:50:06;;;;;;;8.82;4.75;;;23.70;60.50;;;;;;5109779;28;20372;-75
2021/08/12 11:52:44;;;;;;;6.63;4.25;;;23.80;60.90;;;;;;5109336;28;20399;-78
2021/08/12 11:55:15;;;;;;;6.55;4.70;;;23.70;60.80;;;;;;5109725;28;20725;-75
2021/08/12 11:57:46;;;;;;;11.85;5.65;;;23.70;58.40;;;;;;5111001;28;20879;-75
2021/08/12 12:00:15;;;;;;;8.48;5.10;;;23.70;62.30;;;;;;5109661;28;20392;-75
2021/08/12 12:03:04;;;;;;;10.15;5.53;;;23.70;61.80;;;;;;5109561;28;20410;-76
2021/08/12 12:05:31;;;;;;;7.88;4.50;;;23.60;62.70;;;;;;5111161;28;20456;-76
2021/08/12 12:08:05;;;;;;;8.02;4.13;;;23.50;60.00;;;;;;5112501;28;20379;-74
2021/08/12 12:10:35;;;;;;;9.18;4.70;;;23.50;62.20;;;;;;5113590;28;20425;-77
2021/08/12 12:13:08;;;;;;;7.75;4.13;;;23.50;61.10;;;;;;5115067;28;20387;-76
2021/08/12 12:15:46;;;;;;;9.00;4.55;;;23.60;62.40;;;;;;5115071;28;20462;-78
2021/08/12 12:18:15;;;;;;;8.82;4.70;;;23.60;64.60;;;;;;5113406;28;20444;-75
2021/08/12 12:20:43;;;;;;;8.02;4.55;;;23.60;63.40;;;;;;5113369;28;20384;-74
2021/08/12 12:23:16;;;;;;;5.82;4.20;;;23.50;61.70;;;;;;5113530;28;20710;-76
2021/08/12 12:25:48;;;;;;;10.38;4.68;;;23.30;61.90;;;;;;5113710;28;20725;-77
2021/08/12 12:28:14;;;;;;;7.05;4.20;;;23.40;62.60;;;;;;5113421;28;20871;-75
2021/08/12 12:30:40;;;;;;;10.32;4.00;;;23.40;62.30;;;;;;5114470;28;20971;-75
2021/08/12 12:33:09;;;;;;;10.15;4.40;;;23.40;62.30;;;;;;5112983;28;20389;-75
2021/08/12 12:35:40;;;;;;;9.63;4.30;;;23.30;62.10;;;;;;5114362;28;20392;-78
2021/08/12 12:38:08;;;;;;;8.60;4.50;;;23.30;61.00;;;;;;5113081;28;20383;-76
2021/08/12 12:40:35;;;;;;;8.52;4.32;;;23.30;62.90;;;;;;5113089;28;20380;-76
2021/08/12 12:43:01;;;;;;;7.68;4.25;;;23.40;61.30;;;;;;5114169;28;20396;-80
2021/08/12 12:45:28;;;;;;;10.57;4.22;;;23.40;60.70;;;;;;5112948;28;20733;-77
2021/08/12 12:48:05;;;;;;;10.00;3.97;;;23.50;63.20;;;;;;5112616;28;20491;-77